Saturday, July 21, 2018, 3:24 AM EDT
Back to Local

KMGW, Morgantown Muni-hart Field

Location: Morgantown, WV, United States Lat: 39.65
Local Time: 3:24 AM EDT ( 7:24 GMT) Lon: -79.917
Time Zone: US/Eastern Elev: 1246 ft

Show me the last for .
Show Decoded

2018-07-21 02:53 METAR KMGW 210653Z AUTO 18005KT 10SM CLR 22/16 A2991 RMK AO2 SLP117 T02170156 =
2018-07-21 01:53 METAR KMGW 210553Z AUTO 15009KT 10SM SCT120 22/16 A2991 RMK AO2 SLP117 T02220161
                 10222 20200 56022 =
2018-07-21 00:53 METAR KMGW 210453Z AUTO 17006KT 10SM CLR 22/16 A2993 RMK AO2 SLP125 T02170161
                 403060194 =
2018-07-20 23:53 METAR KMGW 210353Z AUTO 15006KT 10SM FEW085 21/17 A2995 RMK AO2 SLP130 T02110167
                 =
2018-07-20 22:53 METAR KMGW 210253Z 21004KT 10SM OVC075 21/18 A2998 RMK AO2 SLP141 T02060183
                 53011 =
2018-07-20 21:53 METAR KMGW 210153Z 15006KT 10SM BKN100 22/18 A2995 RMK AO2 SLP132 T02170178 =
2018-07-20 20:53 METAR KMGW 210053Z 15006KT 10SM OVC100 22/19 A2995 RMK AO2 SLP132 T02170189 =
2018-07-20 19:53 METAR KMGW 202353Z 20003KT 10SM SCT120 22/19 A2995 RMK AO2 RAE16 SLP133 P0000
                 60027 T02170189 10306 20217 58012 =
2018-07-20 18:53 METAR KMGW 202253Z 18003KT 9SM -RA FEW090 BKN110 22/21 A2998 RMK AO2 LTG DSNT NE
                 RAE17B46 TSE08 SLP142 P0004 T02170206 =
2018-07-20 18:32 METAR KMGW 202232Z 17005KT 10SM VCTS OVC100 22/21 A2998 RMK AO2 LTG DSNT N RAE17
                 TSE08 P0003 T02170206 =
2018-07-20 18:14 METAR KMGW 202214Z 19005KT 5SM -RA BR FEW050 BKN095 OVC110 22/20 A2998 RMK AO2
                 LTG DSNT E TSE08 P0003 T02170200 =
2018-07-20 17:53 METAR KMGW 202153Z 21005KT 10SM -TSRA SCT055 BKN070 OVC100 23/21 A2998 RMK AO2
                 LTG DSNT NE RAE08B52 TSB53 SLP145 TS SE SW OCNL LGTICCG P0002 T02280206 =
2018-07-20 17:06 METAR KMGW 202106Z 15005KT 4SM -RA BR SCT037 BKN060 OVC090 22/21 A2998 RMK AO2
                 LTG DSNT N AND SW P0002 T02220211 =
2018-07-20 16:59 METAR KMGW 202059Z 17003KT 2 1/2SM -RA BR SCT037 BKN060 OVC075 22/21 A2998 RMK
                 AO2 VIS 1V5 LTG DSNT SW P0002 T02170211 =
2018-07-20 16:53 METAR KMGW 202053Z VRB03KT 3/4SM -RA BR SCT035 BKN060 OVC080 22/21 A2998 RMK AO2
                 LTG DSNT SW RAB30 SLP145 P0021 60021 T02220211 55010 =
2018-07-20 16:45 METAR KMGW 202045Z 21007KT 1 3/4SM +RA FEW041 BKN060 OVC080 23/20 A2999 RMK AO2
                 RAB30 P0011 T02280200 =
2018-07-20 16:25 METAR KMGW 202025Z VRB06KT 10SM BKN055 OVC075 25/19 A2996 RMK AO2 T02500189 =
2018-07-20 16:06 METAR KMGW 202006Z VRB06KT 10SM VCTS FEW050 BKN075 28/17 A2996 RMK AO2 T02830167
                 =
2018-07-20 15:53 METAR KMGW 201953Z 19008KT 10SM FEW050 SCT080 29/17 A2996 RMK AO2 SLP133
                 T02890172 =
2018-07-20 14:53 METAR KMGW 201853Z 17007KT 10SM SCT055 29/17 A2999 RMK AO2 SLP143 T02940167 =
2018-07-20 13:53 METAR KMGW 201753Z 16008G21KT 10SM CLR 29/17 A3001 RMK AO2 SLP152 T02940167
                 10300 20217 58011 =
2018-07-20 12:53 METAR KMGW 201653Z 20008KT 10SM SCT055 29/16 A3003 RMK AO2 SLP156 T02940156 =
2018-07-20 11:53 METAR KMGW 201553Z 21007KT 10SM CLR 28/16 A3004 RMK AO2 SLP162 T02830156 =
2018-07-20 10:53 METAR KMGW 201453Z VRB05KT 10SM CLR 28/16 A3005 RMK AO2 SLP163 T02780156 58005 =
2018-07-20 09:53 METAR KMGW 201353Z 15008KT 10SM CLR 26/16 A3006 RMK AO2 SLP167 T02610156 =
2018-07-20 08:53 METAR KMGW 201253Z 14006KT 10SM CLR 23/15 A3007 RMK AO2 SLP170 T02330150 =
2018-07-20 07:53 METAR KMGW 201153Z 16009KT 10SM CLR 22/14 A3006 RMK AO2 SLP169 T02170139 10217
                 20194 53004 =
2018-07-20 06:53 METAR KMGW 201053Z AUTO 16005KT 10SM FEW070 21/14 A3006 RMK AO2 SLP167 T02060139
                 =
2018-07-20 05:53 METAR KMGW 200953Z AUTO 16005KT 10SM FEW070 20/14 A3005 RMK AO2 SLP165 T02000139
                 =
2018-07-20 04:53 METAR KMGW 200853Z AUTO 17008KT 10SM CLR 21/13 A3005 RMK AO2 SLP165 T02060133
                 58003 =
2018-07-20 03:53 METAR KMGW 200753Z AUTO 15007KT 10SM CLR 21/13 A3006 RMK AO2 SLP170 T02060133 =

Support USWX by starting your Amazon purchase here.